Time;durP1;ratioP1;P1;durP2;ratioP2;P2;SDS_P1;SDS_P2;PMS_P1;PMS_P2;Temp;Humidity;BMP_temperature;BMP_pressure;BME280_temperature;BME280_humidity;BME280_pressure;Samples;Min_cycle;Max_cycle;Signal;HPM_P1;HPM_P2
2023/01/09 00:01:33;;;;;;;3.28;2.00;;;7.50;99.90;;;6.79;100.00;95829.78;5006373;28;20050;-73
2023/01/09 00:04:01;;;;;;;3.50;1.60;;;7.50;99.90;;;6.89;100.00;95817.25;5001312;28;20073;-74
2023/01/09 00:06:29;;;;;;;4.80;1.60;;;7.50;99.90;;;6.86;100.00;95825.94;4998359;28;20517;-73
2023/01/09 00:08:56;;;;;;;2.92;1.20;;;7.60;99.90;;;6.87;100.00;95813.91;5004558;28;20049;-74
2023/01/09 00:11:23;;;;;;;2.45;1.27;;;7.60;99.90;;;6.83;100.00;95822.72;5007778;28;20080;-73
2023/01/09 00:13:50;;;;;;;4.05;1.65;;;7.60;99.90;;;6.91;100.00;95815.38;5009788;28;20073;-73
2023/01/09 00:16:18;;;;;;;3.28;1.20;;;7.50;99.90;;;6.88;100.00;95831.84;4997307;28;20053;-73
2023/01/09 00:18:45;;;;;;;4.40;1.30;;;7.50;99.90;;;6.93;100.00;95804.97;5012413;28;20053;-73
2023/01/09 00:21:13;;;;;;;3.00;1.27;;;7.50;99.90;;;6.93;100.00;95813.53;5012693;28;20424;-73
2023/01/09 00:23:40;;;;;;;2.53;1.48;;;7.50;99.90;;;6.85;100.00;95802.84;5014992;28;20447;-73
2023/01/09 00:26:12;;;;;;;3.00;1.05;;;7.50;99.90;;;6.85;100.00;95819.16;5008719;28;20128;-73
2023/01/09 00:28:39;;;;;;;1.38;0.80;;;7.50;99.90;;;6.92;100.00;95814.47;5008542;28;20772;-73
2023/01/09 00:31:08;;;;;;;2.78;0.70;;;7.60;99.90;;;6.98;100.00;95800.38;5012940;28;20057;-73
2023/01/09 00:33:41;;;;;;;2.10;0.90;;;7.60;99.90;;;7.00;100.00;95825.22;5006485;28;20041;-73
2023/01/09 00:36:09;;;;;;;2.63;1.20;;;7.60;99.90;;;7.01;100.00;95807.97;5009165;28;20141;-74
2023/01/09 00:38:37;;;;;;;1.20;0.70;;;7.60;99.90;;;7.00;100.00;95811.44;5014930;28;20056;-73
2023/01/09 00:41:09;;;;;;;4.30;1.10;;;7.60;99.90;;;7.04;100.00;95806.03;5013057;28;20526;-73
2023/01/09 00:43:43;;;;;;;2.65;0.93;;;7.60;99.90;;;6.99;100.00;95810.63;4992901;28;20060;-73
2023/01/09 00:46:12;;;;;;;2.20;0.80;;;7.60;99.90;;;7.00;100.00;95806.28;5009797;28;20060;-74
2023/01/09 00:48:42;;;;;;;1.60;0.70;;;7.60;99.90;;;6.94;100.00;95801.50;4992085;28;20045;-74
2023/01/09 00:51:09;;;;;;;2.45;0.73;;;7.50;99.90;;;6.96;100.00;95812.56;5024545;28;20050;-73
2023/01/09 00:53:40;;;;;;;1.65;0.70;;;7.50;99.90;;;6.84;100.00;95820.06;5005730;28;20051;-73
2023/01/09 00:56:13;;;;;;;1.85;0.80;;;7.50;99.90;;;6.86;100.00;95825.13;5013807;28;20096;-73
2023/01/09 00:58:40;;;;;;;;;;;7.50;99.90;;;6.83;100.00;95836.44;5017369;28;20070;-73
2023/01/09 01:01:08;;;;;;;1.65;0.75;;;7.60;99.90;;;6.83;100.00;95839.03;5015833;28;19931;-74
2023/01/09 01:03:35;;;;;;;1.38;0.60;;;7.50;99.90;;;6.87;100.00;95842.28;5009770;28;20058;-73
2023/01/09 01:08:48;;;;;;;1.77;0.60;;;7.50;99.90;;;6.95;100.00;95841.84;5011290;28;20053;-74
2023/01/09 01:11:15;;;;;;;1.40;0.63;;;7.50;99.90;;;6.88;100.00;95844.75;5014671;28;20050;-75
2023/01/09 01:13:43;;;;;;;2.72;0.77;;;7.50;99.90;;;6.84;100.00;95838.13;5014276;28;20499;-74
2023/01/09 01:16:12;;;;;;;4.53;0.57;;;7.50;99.90;;;6.81;100.00;95843.44;5011800;28;20049;-74
2023/01/09 01:18:40;;;;;;;1.02;0.60;;;7.50;99.90;;;6.81;100.00;95853.75;5024943;28;20045;-74
2023/01/09 01:21:10;;;;;;;0.90;0.50;;;7.50;99.90;;;6.76;100.00;95866.06;5008143;28;20085;-75
2023/01/09 01:23:38;;;;;;;1.92;0.77;;;7.50;99.90;;;6.79;100.00;95854.75;4994811;28;20915;-76
2023/01/09 01:26:11;;;;;;;1.75;0.60;;;7.50;99.90;;;6.78;100.00;95861.66;5012432;28;20064;-75
2023/01/09 01:28:38;;;;;;;0.50;0.40;;;7.40;99.90;;;6.78;100.00;95863.41;5006695;28;20392;-75
2023/01/09 01:31:06;;;;;;;1.92;0.40;;;7.40;99.90;;;6.79;100.00;95867.66;5007047;28;20072;-75
2023/01/09 01:33:34;;;;;;;1.27;0.40;;;7.40;99.90;;;6.72;100.00;95863.75;5013214;28;20081;-75
2023/01/09 01:36:07;;;;;;;0.88;0.30;;;7.40;99.90;;;6.66;100.00;95868.34;5012535;28;20054;-75
2023/01/09 01:38:34;;;;;;;;;;;7.40;99.90;;;6.69;100.00;95872.47;5006318;28;20050;-75
2023/01/09 01:41:02;;;;;;;1.00;0.40;;;7.40;99.90;;;6.62;100.00;95876.31;4992133;28;20013;-76
2023/01/09 01:44:04;;;;;;;0.77;0.35;;;7.40;99.90;;;6.62;100.00;95886.63;5011932;28;20385;-75
2023/01/09 01:46:33;;;;;;;1.15;0.30;;;7.30;99.90;;;6.64;100.00;95883.03;4988241;28;20049;-74
2023/01/09 01:49:13;;;;;;;1.55;0.40;;;7.30;99.90;;;6.60;100.00;95875.56;5012424;28;20065;-74
2023/01/09 01:51:46;;;;;;;3.17;0.40;;;7.30;99.90;;;6.60;100.00;95894.44;5006627;28;20515;-74
2023/01/09 01:54:21;;;;;;;0.35;0.30;;;7.20;99.90;;;6.56;100.00;95867.16;5010482;28;20071;-73
2023/01/09 01:56:55;;;;;;;1.58;0.30;;;7.20;99.90;;;6.58;100.00;95857.59;5008549;28;20061;-74
2023/01/09 01:59:37;;;;;;;0.40;0.30;;;7.20;99.90;;;6.54;100.00;95855.25;5018817;28;20568;-74
2023/01/09 02:02:04;;;;;;;0.98;0.50;;;7.20;99.90;;;6.54;100.00;95850.09;5001860;28;20523;-74
2023/01/09 02:04:35;;;;;;;2.50;0.43;;;7.10;99.90;;;6.52;100.00;95875.97;5010819;28;20053;-74
2023/01/09 02:07:07;;;;;;;2.97;0.50;;;7.20;99.90;;;6.59;100.00;95861.00;4993762;28;20543;-74
2023/01/09 02:09:38;;;;;;;0.60;0.40;;;7.10;99.90;;;6.53;100.00;95872.47;5008526;28;20560;-73
2023/01/09 02:12:24;;;;;;;0.40;0.30;;;7.10;99.90;;;6.52;100.00;95886.28;5002155;28;20068;-74
2023/01/09 02:15:06;;;;;;;1.05;0.50;;;7.10;99.90;;;6.45;100.00;95878.06;5013142;28;20050;-74
2023/01/09 02:18:04;;;;;;;2.63;0.40;;;7.10;99.90;;;6.54;100.00;95884.44;5008599;28;20065;-74
2023/01/09 02:21:09;;;;;;;0.93;0.40;;;7.10;99.90;;;6.53;100.00;95881.97;5002614;28;20050;-74
2023/01/09 02:24:04;;;;;;;1.52;0.40;;;7.10;99.90;;;6.47;100.00;95894.25;4955065;28;20047;-73
2023/01/09 02:27:07;;;;;;;0.40;0.40;;;7.10;99.90;;;6.45;100.00;95905.56;5023193;28;20045;-73
2023/01/09 02:30:27;;;;;;;2.15;0.50;;;7.10;99.90;;;6.53;100.00;95902.59;5003099;28;20291;-73
2023/01/09 02:33:46;;;;;;;1.00;0.43;;;7.10;99.90;;;6.53;100.00;95913.72;4969189;28;20058;-73
2023/01/09 02:36:23;;;;;;;0.68;0.30;;;7.10;99.90;;;6.41;100.00;95917.78;5008143;28;20056;-73
2023/01/09 02:39:21;;;;;;;2.47;0.40;;;7.00;99.90;;;6.40;100.00;95930.75;5007891;28;20064;-74
2023/01/09 02:42:02;;;;;;;3.08;0.40;;;7.00;99.90;;;6.33;100.00;95948.28;5007764;28;20137;-74
2023/01/09 02:44:33;;;;;;;0.98;0.40;;;7.00;99.90;;;6.25;100.00;95961.56;5009987;28;20043;-74
2023/01/09 02:47:14;;;;;;;1.63;0.60;;;7.00;99.90;;;6.25;100.00;95947.84;5010802;28;20390;-73
2023/01/09 02:50:04;;;;;;;3.08;0.50;;;7.00;99.90;;;6.22;100.00;95938.50;5014512;28;20128;-74
2023/01/09 02:53:25;;;;;;;1.95;0.80;;;6.90;99.90;;;6.18;100.00;95934.44;4999613;28;20792;-73
2023/01/09 02:56:04;;;;;;;0.63;0.40;;;6.90;99.90;;;6.15;100.00;95939.75;5012257;28;20504;-73
2023/01/09 02:59:10;;;;;;;1.58;0.40;;;6.80;99.90;;;6.08;100.00;95959.00;5001871;28;20149;-73
2023/01/09 03:02:07;;;;;;;1.00;0.45;;;6.90;99.90;;;6.02;100.00;95974.75;4994985;28;20606;-73
2023/01/09 03:04:51;;;;;;;1.10;0.40;;;6.90;99.90;;;6.02;100.00;95943.84;5007405;28;20045;-73
2023/01/09 03:07:47;;;;;;;1.40;0.50;;;6.90;99.90;;;6.00;100.00;95949.09;5012440;28;20518;-73
2023/01/09 03:10:23;;;;;;;2.08;0.50;;;6.90;99.90;;;6.02;100.00;95975.59;5005335;28;20405;-73
2023/01/09 03:12:53;;;;;;;0.40;0.30;;;6.80;99.90;;;5.98;100.00;95962.97;5004218;28;20054;-73
2023/01/09 03:15:25;;;;;;;2.38;0.40;;;6.80;99.90;;;6.08;100.00;95954.66;5008358;28;20065;-73
2023/01/09 03:17:54;;;;;;;0.82;0.38;;;6.90;99.90;;;5.98;100.00;95979.25;5003552;28;20050;-74
2023/01/09 03:20:26;;;;;;;0.60;0.40;;;6.80;99.90;;;5.94;100.00;95971.72;5012586;28;20046;-73
2023/01/09 03:23:00;;;;;;;0.70;0.30;;;6.80;99.90;;;5.99;100.00;95972.34;5012058;28;20049;-73
2023/01/09 03:25:29;;;;;;;2.45;0.52;;;6.70;99.90;;;5.92;100.00;95984.66;5006585;28;20156;-73
2023/01/09 03:28:03;;;;;;;1.30;0.50;;;6.70;99.90;;;5.86;100.00;95985.81;5010555;28;20049;-73
2023/01/09 03:30:32;;;;;;;2.95;0.40;;;6.70;99.90;;;5.92;100.00;95988.97;5009245;28;20049;-73
2023/01/09 03:33:00;;;;;;;0.90;0.40;;;6.60;99.90;;;5.89;100.00;95991.72;5012126;28;20050;-73
2023/01/09 03:35:27;;;;;;;1.25;0.50;;;6.60;99.90;;;5.84;100.00;96003.06;5012196;28;20042;-74
2023/01/09 03:37:54;;;;;;;1.10;0.50;;;6.60;99.90;;;5.89;100.00;96002.00;5010629;28;20046;-73
2023/01/09 03:40:21;;;;;;;0.98;0.50;;;6.60;99.90;;;5.85;100.00;96024.50;5009183;28;20049;-74
2023/01/09 03:42:48;;;;;;;1.27;0.40;;;6.50;99.90;;;5.82;100.00;96027.22;4994769;28;20061;-74
2023/01/09 03:45:16;;;;;;;1.65;0.52;;;6.50;99.90;;;5.79;100.00;96029.94;5012333;28;20045;-74
2023/01/09 03:47:42;;;;;;;1.42;0.50;;;6.50;99.90;;;5.78;100.00;96034.25;5012031;28;20117;-74
2023/01/09 03:50:10;;;;;;;1.98;0.40;;;6.40;99.90;;;5.77;100.00;96045.47;5008012;28;20046;-74
2023/01/09 03:52:37;;;;;;;2.67;0.40;;;6.40;99.90;;;5.80;100.00;96053.03;5017064;28;20431;-72
2023/01/09 03:55:04;;;;;;;2.15;0.50;;;6.40;99.90;;;5.79;100.00;96053.09;5019244;28;20045;-75
2023/01/09 03:57:31;;;;;;;2.72;0.55;;;6.50;99.90;;;5.70;100.00;96061.28;5012040;28;20502;-72
2023/01/09 03:59:58;;;;;;;0.60;0.40;;;6.60;99.90;;;5.64;100.00;96065.81;5009714;28;20617;-73
2023/01/09 04:02:25;;;;;;;1.88;0.50;;;6.60;99.90;;;5.63;100.00;96082.16;4999664;28;20132;-74
2023/01/09 04:04:53;;;;;;;1.10;0.52;;;6.40;99.90;;;5.58;100.00;96075.56;5013922;28;20049;-74
2023/01/09 04:07:20;;;;;;;2.15;0.60;;;6.40;99.90;;;5.56;100.00;96078.19;5014555;28;20556;-73
2023/01/09 04:09:47;;;;;;;2.65;0.50;;;6.40;99.90;;;5.57;100.00;96087.59;5009147;28;20042;-74
2023/01/09 04:12:14;;;;;;;2.85;0.43;;;6.40;99.90;;;5.50;100.00;96108.56;5010968;28;20740;-74
2023/01/09 04:14:41;;;;;;;1.90;0.40;;;6.30;99.90;;;5.46;100.00;96100.13;5008511;28;20089;-74
2023/01/09 04:17:08;;;;;;;1.65;0.60;;;6.40;99.90;;;5.41;100.00;96114.94;5005372;28;20535;-74
2023/01/09 04:19:35;;;;;;;2.60;0.50;;;6.40;99.90;;;5.38;100.00;96102.19;5023131;28;20444;-74
2023/01/09 04:22:02;;;;;;;0.60;0.40;;;6.40;99.90;;;5.36;100.00;96091.16;5009461;28;20050;-74
2023/01/09 04:24:31;;;;;;;2.30;0.47;;;6.30;99.90;;;5.26;100.00;96095.88;5007939;28;20412;-73
2023/01/09 04:26:58;;;;;;;1.52;0.40;;;6.20;99.90;;;5.28;100.00;96100.97;5015015;28;20049;-74
2023/01/09 04:29:25;;;;;;;1.88;0.50;;;6.20;99.90;;;5.25;100.00;96101.94;5012764;28;20049;-74
2023/01/09 04:31:52;;;;;;;2.53;0.70;;;6.10;99.90;;;5.14;100.00;96106.72;5006532;28;20056;-74
2023/01/09 04:34:24;;;;;;;1.65;0.50;;;6.00;99.90;;;5.16;100.00;96103.19;5009950;28;20092;-74
2023/01/09 04:36:54;;;;;;;5.07;0.88;;;5.90;99.90;;;5.06;100.00;96121.66;5012519;28;20083;-73
2023/01/09 04:39:22;;;;;;;2.75;0.50;;;5.90;99.90;;;5.10;100.00;96111.16;5009596;28;20401;-73
2023/01/09 04:41:49;;;;;;;3.10;0.68;;;5.90;99.90;;;5.07;100.00;96118.19;5022348;28;20408;-73
2023/01/09 04:44:21;;;;;;;6.75;0.80;;;5.90;99.90;;;4.96;100.00;96118.66;5009297;28;20159;-73
2023/01/09 04:46:48;;;;;;;5.77;1.23;;;5.80;99.90;;;4.96;100.00;96123.81;5011479;28;20157;-73
2023/01/09 04:49:15;;;;;;;2.92;0.70;;;5.70;99.90;;;4.85;100.00;96124.25;5010294;28;20050;-73
2023/01/09 04:51:43;;;;;;;3.60;0.68;;;5.70;99.90;;;4.77;100.00;96118.63;5010069;28;20447;-73
2023/01/09 04:54:10;;;;;;;6.30;0.90;;;5.70;99.90;;;4.70;100.00;96127.47;5010841;28;20078;-73
2023/01/09 04:56:37;;;;;;;6.00;0.60;;;5.70;99.90;;;4.73;100.00;96117.09;5008528;28;20049;-73
2023/01/09 04:59:06;;;;;;;3.58;0.90;;;5.70;99.90;;;4.74;100.00;96118.75;4990497;28;20057;-74
2023/01/09 05:01:34;;;;;;;3.47;0.60;;;5.70;99.90;;;4.75;100.00;96120.44;5007212;28;20043;-74
2023/01/09 05:04:02;;;;;;;6.53;0.80;;;5.70;99.90;;;4.73;100.00;96110.19;5011098;28;20334;-74
2023/01/09 05:06:30;;;;;;;4.10;0.60;;;5.70;99.90;;;4.75;100.00;96107.56;4993687;28;20046;-74
2023/01/09 05:08:57;;;;;;;6.63;0.70;;;5.60;99.90;;;4.70;100.00;96135.19;5024563;28;20069;-73
2023/01/09 05:11:25;;;;;;;5.20;0.60;;;5.70;99.90;;;4.77;100.00;96122.03;5008248;28;20421;-74
2023/01/09 05:13:53;;;;;;;9.75;0.70;;;5.70;99.90;;;4.76;100.00;96137.50;5006601;28;20061;-73
2023/01/09 05:16:20;;;;;;;8.40;0.88;;;5.70;99.90;;;4.82;100.00;96130.38;5025765;28;20068;-74
2023/01/09 05:18:48;;;;;;;5.15;0.52;;;5.70;99.90;;;4.65;100.00;96142.25;5008502;28;20776;-73
2023/01/09 05:21:15;;;;;;;6.70;1.38;;;5.80;99.90;;;4.64;100.00;96159.44;5008088;28;20053;-73
2023/01/09 05:23:42;;;;;;;8.05;0.80;;;5.70;99.90;;;4.74;100.00;96172.72;5010636;28;20504;-74
2023/01/09 05:26:09;;;;;;;10.35;1.27;;;5.60;99.90;;;4.63;100.00;96182.59;5006564;28;20046;-74
2023/01/09 05:28:36;;;;;;;5.97;0.75;;;5.50;99.90;;;4.62;100.00;96189.50;5006564;28;20126;-74
2023/01/09 05:31:03;;;;;;;5.97;0.57;;;5.40;99.90;;;4.42;100.00;96203.16;5009858;28;20485;-74
2023/01/09 05:33:30;;;;;;;5.95;0.80;;;5.40;99.90;;;4.49;100.00;96201.16;5010319;28;20147;-74
2023/01/09 05:35:57;;;;;;;7.30;0.70;;;5.30;99.90;;;4.54;100.00;96212.13;5005256;28;20045;-74
2023/01/09 05:38:24;;;;;;;9.60;1.15;;;5.20;99.90;;;4.48;100.00;96195.19;5003037;28;20041;-74
2023/01/09 05:40:52;;;;;;;4.78;0.70;;;5.30;99.90;;;4.49;100.00;96239.72;5013452;28;20103;-74
2023/01/09 05:43:19;;;;;;;7.57;1.25;;;5.20;99.90;;;4.45;100.00;96257.00;5010342;28;20880;-74
2023/01/09 05:45:46;;;;;;;8.27;0.90;;;5.30;99.90;;;4.42;100.00;96251.13;4999278;28;20041;-74
2023/01/09 05:48:13;;;;;;;10.10;1.02;;;5.20;99.90;;;4.42;100.00;96228.00;5004832;28;20050;-74
2023/01/09 05:50:40;;;;;;;12.38;1.08;;;5.30;99.90;;;4.39;100.00;96252.91;4998151;28;20418;-74
2023/01/09 05:53:08;;;;;;;8.35;1.45;;;5.20;99.90;;;4.39;100.00;96237.50;5006588;28;20046;-74
2023/01/09 05:55:35;;;;;;;9.30;1.35;;;5.20;99.90;;;4.44;100.00;96255.31;4994400;28;20512;-74
2023/01/09 05:58:02;;;;;;;11.73;0.98;;;5.10;99.90;;;4.30;100.00;96248.13;5001563;28;20758;-74
2023/01/09 06:00:29;;;;;;;10.82;1.70;;;5.20;99.90;;;4.30;100.00;96262.72;5008573;28;20053;-74
2023/01/09 06:02:56;;;;;;;9.30;1.50;;;5.10;99.90;;;4.33;100.00;96240.34;5007297;28;20149;-74
2023/01/09 06:05:23;;;;;;;10.05;1.33;;;5.20;99.90;;;4.30;100.00;96239.59;5006146;28;20107;-74
2023/01/09 06:07:51;;;;;;;7.85;1.17;;;5.10;99.90;;;4.32;100.00;96250.66;5002147;28;20054;-74
2023/01/09 06:10:18;;;;;;;12.07;1.88;;;5.20;99.90;;;4.39;100.00;96245.22;5004274;28;20056;-74
2023/01/09 06:12:49;;;;;;;7.72;1.98;;;5.20;99.90;;;4.33;100.00;96257.44;4990002;28;20060;-73
2023/01/09 06:15:17;;;;;;;8.05;1.77;;;5.20;99.90;;;4.32;100.00;96259.19;5005566;28;20131;-73
2023/01/09 06:17:43;;;;;;;9.95;1.73;;;5.20;99.90;;;4.32;100.00;96300.28;5004459;28;20064;-73
2023/01/09 06:20:11;;;;;;;4.63;1.17;;;5.30;99.90;;;4.36;100.00;96265.06;5007525;28;20448;-73
2023/01/09 06:22:38;;;;;;;9.30;1.55;;;5.30;99.90;;;4.31;100.00;96257.53;5011276;28;20046;-73
2023/01/09 06:25:06;;;;;;;12.38;1.73;;;5.30;99.90;;;4.32;100.00;96266.91;5006830;28;20045;-74
2023/01/09 06:27:33;;;;;;;6.75;1.30;;;5.30;99.90;;;4.38;100.00;96282.09;5008544;28;20125;-73
2023/01/09 06:30:00;;;;;;;8.45;1.40;;;5.30;99.90;;;4.39;100.00;96281.19;5007700;28;20056;-74
2023/01/09 06:32:27;;;;;;;8.85;1.23;;;5.30;99.90;;;4.42;100.00;96289.66;5007892;28;20521;-73
2023/01/09 06:34:54;;;;;;;10.23;0.98;;;5.30;99.90;;;4.42;100.00;96275.06;5013636;28;20053;-73
2023/01/09 06:37:21;;;;;;;8.30;0.80;;;5.30;99.90;;;4.36;100.00;96277.91;5010274;28;20743;-74
2023/01/09 06:39:48;;;;;;;18.13;1.10;;;5.30;99.90;;;4.36;100.00;96259.94;5003295;28;20053;-73
2023/01/09 06:42:16;;;;;;;6.43;0.95;;;5.30;99.90;;;4.32;100.00;96273.78;5002168;28;20057;-73
2023/01/09 06:44:43;;;;;;;6.00;0.95;;;5.30;99.90;;;4.25;100.00;96262.91;5006650;28;20061;-73
2023/01/09 06:47:10;;;;;;;13.82;1.40;;;5.30;99.90;;;4.30;100.00;96267.84;5013045;28;20053;-73
2023/01/09 06:49:37;;;;;;;8.27;1.45;;;5.30;99.90;;;4.33;100.00;96296.00;5009583;28;20050;-73
2023/01/09 06:52:06;;;;;;;10.13;0.88;;;5.20;99.90;;;4.32;100.00;96271.22;5005015;28;20142;-73
2023/01/09 06:54:34;;;;;;;9.10;1.02;;;5.30;99.90;;;4.36;100.00;96259.94;5007465;28;20136;-73
2023/01/09 06:57:01;;;;;;;7.20;1.00;;;5.30;99.90;;;4.44;100.00;96275.03;5011838;28;20052;-73
2023/01/09 06:59:28;;;;;;;5.22;0.80;;;5.20;99.90;;;4.46;100.00;96265.53;4997127;28;20054;-73
2023/01/09 07:01:55;;;;;;;4.82;0.70;;;5.20;99.90;;;4.37;100.00;96270.13;5010795;28;20492;-73
2023/01/09 07:04:22;;;;;;;6.88;1.00;;;5.30;99.90;;;4.32;100.00;96304.59;5010923;28;20417;-73
2023/01/09 07:06:49;;;;;;;3.92;0.60;;;5.30;99.90;;;4.38;100.00;96276.13;5002681;28;20136;-73
2023/01/09 07:09:17;;;;;;;3.50;0.70;;;5.30;99.90;;;4.36;100.00;96312.13;4997671;28;20147;-73
2023/01/09 07:11:44;;;;;;;4.75;1.02;;;5.20;99.90;;;4.38;100.00;96279.53;5015460;28;20050;-74
2023/01/09 07:14:11;;;;;;;3.08;0.70;;;5.30;99.90;;;4.36;100.00;96285.63;5010758;28;20050;-72
2023/01/09 07:16:37;;;;;;;5.32;0.82;;;5.30;99.90;;;4.32;100.00;96271.22;5006742;28;20064;-72
2023/01/09 07:19:04;;;;;;;6.13;0.77;;;5.30;99.90;;;4.28;100.00;96292.75;5012123;28;20132;-72
2023/01/09 07:21:31;;;;;;;8.75;2.28;;;5.30;99.90;;;4.28;100.00;96306.44;5008211;28;20045;-72
2023/01/09 07:23:59;;;;;;;11.60;3.75;;;5.30;99.90;;;4.36;100.00;96285.63;5002711;28;20060;-73
2023/01/09 07:26:26;;;;;;;8.13;1.95;;;5.30;99.90;;;4.44;100.00;96290.44;5007145;28;20064;-73
2023/01/09 07:28:53;;;;;;;3.88;0.75;;;5.30;99.90;;;4.31;100.00;96301.19;5007400;28;20132;-72
2023/01/09 07:31:20;;;;;;;6.90;0.95;;;5.30;99.90;;;4.37;100.00;96297.53;5007086;28;20129;-71
2023/01/09 07:33:47;;;;;;;3.63;0.90;;;5.30;99.90;;;4.36;100.00;96303.59;5005706;28;20099;-72
2023/01/09 07:36:14;;;;;;;8.02;1.23;;;5.30;99.90;;;4.39;100.00;96288.06;5010529;28;20046;-72
2023/01/09 07:38:42;;;;;;;8.52;1.33;;;5.30;99.90;;;4.43;100.00;96307.59;5008198;28;20052;-72
2023/01/09 07:41:09;;;;;;;7.47;0.85;;;5.40;99.90;;;4.44;100.00;96290.44;5007409;28;20056;-72
2023/01/09 07:43:38;;;;;;;6.80;0.93;;;5.30;99.90;;;4.44;100.00;96304.13;5012726;28;20057;-72
2023/01/09 07:46:05;;;;;;;7.75;0.80;;;5.30;99.90;;;4.42;100.00;96305.91;5003515;28;20046;-72
2023/01/09 07:48:32;;;;;;;10.40;1.55;;;5.30;99.90;;;4.50;100.00;96300.50;5008931;28;20049;-72
2023/01/09 07:50:59;;;;;;;9.57;1.20;;;5.30;99.90;;;4.44;100.00;96309.25;5005337;28;20081;-72
2023/01/09 07:53:26;;;;;;;4.28;0.90;;;5.30;99.90;;;4.49;100.00;96316.78;5008724;28;20050;-72
2023/01/09 07:55:53;;;;;;;8.70;1.20;;;5.30;99.90;;;4.44;100.00;96305.84;4992658;28;20133;-72
2023/01/09 07:58:20;;;;;;;3.70;0.70;;;5.30;99.90;;;4.50;100.00;96306.47;5011037;28;20088;-72
2023/01/09 08:00:49;;;;;;;6.68;1.30;;;5.30;99.90;;;4.40;100.00;96300.84;5003811;28;20141;-73
2023/01/09 08:03:17;;;;;;;1.85;0.60;;;5.30;99.90;;;4.43;100.00;96266.50;4998275;28;20049;-72
2023/01/09 08:05:45;;;;;;;5.70;0.73;;;5.30;99.90;;;4.40;100.00;96297.41;4999528;28;20062;-72
2023/01/09 08:08:13;;;;;;;5.70;0.77;;;5.30;99.90;;;4.39;100.00;96306.03;4996916;28;20133;-72
2023/01/09 08:10:41;;;;;;;5.72;1.05;;;5.30;99.90;;;4.38;100.00;96300.06;5010752;28;20073;-72
2023/01/09 08:13:08;;;;;;;3.97;0.80;;;5.30;99.90;;;4.43;100.00;96299.88;5007835;28;20082;-73
2023/01/09 08:15:35;;;;;;;5.53;0.98;;;5.30;99.90;;;4.38;100.00;96292.38;5009643;28;20050;-72
2023/01/09 08:18:02;;;;;;;5.65;0.80;;;5.30;99.90;;;4.39;100.00;96277.78;5015071;28;21037;-72
2023/01/09 08:20:29;;;;;;;1.73;0.70;;;5.30;99.90;;;4.45;100.00;96298.09;5014368;28;20052;-71
2023/01/09 08:22:57;;;;;;;5.45;0.68;;;5.30;99.90;;;4.42;100.00;96293.06;5020402;28;20057;-71
2023/01/09 08:25:24;;;;;;;6.13;1.10;;;5.30;99.90;;;4.47;100.00;96293.75;5012868;28;20046;-72
2023/01/09 08:27:52;;;;;;;5.55;1.10;;;5.30;99.90;;;4.46;100.00;96302.31;5010834;28;20053;-72
2023/01/09 08:30:19;;;;;;;6.35;0.70;;;5.30;99.90;;;4.49;100.00;96294.50;5010903;28;20125;-72
2023/01/09 08:32:53;;;;;;;4.75;0.73;;;5.30;99.90;;;4.49;100.00;96309.06;5010831;28;20050;-72
2023/01/09 08:35:20;;;;;;;5.28;0.95;;;5.30;99.90;;;4.53;100.00;96306.34;5030434;28;20144;-72
2023/01/09 08:37:48;;;;;;;10.80;1.40;;;5.30;99.90;;;4.50;100.00;96297.91;5010742;28;20137;-73
2023/01/09 08:40:17;;;;;;;4.82;0.90;;;5.30;99.90;;;4.57;100.00;96289.91;5011896;28;20068;-72
2023/01/09 08:48:16;;;;;;;5.28;0.93;;;5.40;99.90;;;4.66;100.00;96285.31;5013563;28;20037;-74
2023/01/09 08:50:43;;;;;;;4.18;1.10;;;5.50;99.90;;;4.63;100.00;96316.25;5012247;28;20050;-73
2023/01/09 08:53:11;;;;;;;7.82;0.98;;;5.50;99.90;;;4.74;100.00;96316.66;5013319;28;20049;-74
2023/01/09 08:55:38;;;;;;;6.07;0.90;;;5.50;99.90;;;4.73;100.00;96286.72;5011142;28;20049;-73
2023/01/09 08:58:06;;;;;;;3.88;0.77;;;5.50;99.90;;;4.67;100.00;96285.22;5011529;28;20361;-73
2023/01/09 09:00:33;;;;;;;4.03;0.88;;;5.50;99.90;;;4.75;100.00;96323.50;5011965;28;20482;-73
2023/01/09 09:03:00;;;;;;;7.43;1.00;;;5.50;99.90;;;4.68;100.00;96320.34;5018507;28;20041;-73
2023/01/09 09:05:30;;;;;;;3.83;1.08;;;5.40;99.90;;;4.58;100.00;96301.00;5008496;28;20405;-73
2023/01/09 09:07:58;;;;;;;6.43;1.05;;;5.50;99.90;;;4.68;100.00;96304.06;4995394;28;20054;-73
2023/01/09 09:10:28;;;;;;;5.65;0.98;;;5.50;99.90;;;4.73;100.00;96312.44;5010109;28;20045;-73
2023/01/09 09:12:57;;;;;;;5.35;0.70;;;5.50;99.90;;;4.70;100.00;96313.41;5002524;28;20156;-73
2023/01/09 09:15:27;;;;;;;4.60;0.70;;;5.40;99.90;;;4.65;100.00;96291.31;5009172;28;20185;-74
2023/01/09 09:18:01;;;;;;;4.43;0.80;;;5.40;99.90;;;4.63;100.00;96306.84;5012725;28;20131;-73
2023/01/09 09:20:35;;;;;;;4.32;0.95;;;5.50;99.90;;;4.66;100.00;96304.13;5010998;28;20128;-73
2023/01/09 09:23:03;;;;;;;3.38;0.80;;;5.40;99.90;;;4.67;100.00;96295.50;5009339;28;20044;-73
2023/01/09 09:25:30;;;;;;;3.88;0.60;;;5.50;99.90;;;4.69;100.00;96322.00;5000345;28;20060;-74
2023/01/09 09:27:59;;;;;;;2.53;0.65;;;5.50;99.90;;;4.63;100.00;96332.53;5002225;28;20091;-73
2023/01/09 09:30:27;;;;;;;3.88;0.80;;;5.50;99.90;;;4.54;100.00;96320.03;5011733;28;20460;-74
2023/01/09 09:32:54;;;;;;;5.50;1.23;;;5.50;99.90;;;4.54;100.00;96290.03;5001346;28;20049;-73
2023/01/09 09:35:21;;;;;;;11.40;1.95;;;5.50;99.90;;;4.66;100.00;96300.72;5008596;28;20141;-74
2023/01/09 09:37:54;;;;;;;3.50;0.93;;;5.50;99.90;;;4.66;100.00;96340.13;5006606;28;20149;-73
2023/01/09 09:40:48;;;;;;;4.68;1.10;;;5.50;99.90;;;4.70;100.00;96358.81;5009570;28;20050;-73
2023/01/09 09:46:28;;;;;;;5.63;0.98;;;5.50;99.90;;;4.90;100.00;96314.31;5004409;28;20046;-75
2023/01/09 09:49:18;;;;;;;5.30;0.90;;;5.60;99.90;;;5.05;100.00;96323.16;5006402;28;20544;-74
2023/01/09 09:52:19;;;;;;;5.90;1.02;;;5.60;99.90;;;4.97;100.00;96373.19;4982618;28;20125;-73
2023/01/09 09:54:50;;;;;;;3.38;0.70;;;5.70;99.90;;;4.97;100.00;96344.88;5003098;28;20108;-74
2023/01/09 09:57:30;;;;;;;7.28;1.10;;;5.70;99.90;;;4.92;100.00;96343.38;5008933;28;20553;-73
2023/01/09 09:59:57;;;;;;;6.45;1.30;;;5.60;99.90;;;4.95;100.00;96346.69;5014655;28;20045;-73
2023/01/09 10:02:29;;;;;;;8.68;1.10;;;5.60;99.90;;;5.03;100.00;96346.38;5010197;28;20068;-74
2023/01/09 10:05:05;;;;;;;5.20;0.90;;;5.60;99.90;;;5.12;100.00;96338.28;5010019;28;20125;-74
2023/01/09 10:07:41;;;;;;;6.93;1.10;;;5.60;99.90;;;5.12;100.00;96334.88;5009779;28;20071;-73
2023/01/09 10:10:50;;;;;;;2.85;0.80;;;5.60;99.90;;;4.97;100.00;96369.75;5008848;28;20053;-73
2023/01/09 10:16:29;;;;;;;7.60;1.27;;;5.80;99.90;;;5.15;100.00;96345.03;5004140;28;20176;-74
2023/01/09 10:19:15;;;;;;;6.80;0.80;;;5.80;99.90;;;5.21;100.00;96309.59;5004439;28;20081;-73
2023/01/09 10:22:07;;;;;;;4.93;1.02;;;5.90;99.90;;;5.08;100.00;96316.13;4993044;28;20064;-73
2023/01/09 10:25:10;;;;;;;6.05;1.05;;;5.90;99.90;;;5.08;100.00;96331.56;5003368;28;20053;-74
2023/01/09 10:28:39;;;;;;;8.90;1.05;;;5.80;99.90;;;5.14;100.00;96351.91;5009192;28;20138;-74
2023/01/09 10:31:24;;;;;;;4.93;1.38;;;5.80;99.90;;;5.12;100.00;96371.72;4979720;28;20049;-74
2023/01/09 10:34:26;;;;;;;8.10;0.90;;;5.70;99.90;;;5.20;100.00;96379.09;5007633;28;20063;-73
2023/01/09 10:37:26;;;;;;;4.93;0.85;;;5.70;99.90;;;5.31;100.00;96358.94;5007609;28;20421;-73
2023/01/09 10:40:24;;;;;;;8.60;1.05;;;5.70;99.90;;;5.26;100.00;96391.72;5023612;28;20103;-73
2023/01/09 10:43:04;;;;;;;8.63;1.05;;;5.70;99.90;;;5.25;100.00;96354.06;4982963;28;20416;-74
2023/01/09 10:45:53;;;;;;;5.18;1.05;;;5.90;99.90;;;5.15;100.00;96345.84;5008552;28;20042;-74
2023/01/09 10:48:35;;;;;;;8.55;1.20;;;5.90;99.90;;;5.22;100.00;96357.59;5005765;28;20068;-73
2023/01/09 10:51:18;;;;;;;9.95;1.75;;;5.90;99.90;;;5.07;100.00;96344.50;4984899;28;20140;-73
2023/01/09 10:53:50;;;;;;;6.13;1.10;;;5.90;99.90;;;5.19;100.00;96328.56;5003976;28;20053;-73
2023/01/09 10:56:25;;;;;;;3.92;0.73;;;5.80;99.90;;;5.16;100.00;96336.44;4987214;28;20045;-73
2023/01/09 10:58:55;;;;;;;2.95;0.88;;;5.80;99.90;;;5.21;100.00;96330.19;4998751;28;20433;-73
2023/01/09 11:01:42;;;;;;;3.83;0.80;;;5.80;99.90;;;5.22;100.00;96321.56;5013796;28;20042;-73